Time;durP1;ratioP1;P1;durP2;ratioP2;P2;SDS_P1;SDS_P2;PMS_P1;PMS_P2;Temp;Humidity;BMP_temperature;BMP_pressure;BME280_temperature;BME280_humidity;BME280_pressure;Samples;Min_cycle;Max_cycle;Signal;HPM_P1;HPM_P2
2023/05/21 00:00:59;;;;;;;8.63;5.40;;;16.60;99.90;;;;;;5059511;28;20032;-76
2023/05/21 00:03:27;;;;;;;5.68;5.18;;;16.50;99.90;;;;;;5060390;28;20044;-75
2023/05/21 00:05:53;;;;;;;5.78;5.22;;;16.50;99.90;;;;;;5041353;28;20107;-76
2023/05/21 00:08:19;;;;;;;6.63;5.05;;;16.60;99.90;;;;;;5059079;28;20111;-76
2023/05/21 00:10:45;;;;;;;7.35;4.75;;;16.50;99.90;;;;;;5060340;28;20078;-75
2023/05/21 00:13:11;;;;;;;7.10;5.05;;;16.50;99.90;;;;;;5061004;28;20582;-76
2023/05/21 00:15:37;;;;;;;7.20;5.45;;;16.50;99.90;;;;;;5040680;28;20108;-76
2023/05/21 00:18:04;;;;;;;5.57;5.07;;;16.50;99.90;;;;;;5060050;28;20098;-76
2023/05/21 00:20:34;;;;;;;6.13;5.53;;;16.50;99.90;;;;;;5058474;28;20025;-76
2023/05/21 00:23:04;;;;;;;7.32;5.07;;;16.50;99.90;;;;;;5059686;28;20107;-76
2023/05/21 00:25:30;;;;;;;5.68;5.18;;;16.50;99.90;;;;;;5059686;28;20028;-76
2023/05/21 00:27:55;;;;;;;5.97;5.38;;;16.50;99.90;;;;;;5059316;28;20401;-76
2023/05/21 00:30:21;;;;;;;11.38;5.53;;;16.40;99.90;;;;;;5060594;28;20028;-76
2023/05/21 00:32:47;;;;;;;6.35;5.75;;;16.40;99.90;;;;;;5060716;28;20041;-75
2023/05/21 00:35:12;;;;;;;9.68;6.38;;;16.40;99.90;;;;;;5060784;28;20017;-76
2023/05/21 00:37:39;;;;;;;7.20;6.30;;;16.30;99.90;;;;;;5058557;28;20100;-76
2023/05/21 00:40:07;;;;;;;11.27;6.50;;;16.30;99.90;;;;;;5058820;28;20032;-76
2023/05/21 00:42:38;;;;;;;6.45;5.85;;;16.30;99.90;;;;;;5040072;28;20029;-76
2023/05/21 00:45:05;;;;;;;6.70;6.00;;;16.30;99.90;;;;;;5040646;28;20025;-76
2023/05/21 00:47:31;;;;;;;7.20;6.50;;;16.30;99.90;;;;;;5059929;28;20091;-76
2023/05/21 00:49:57;;;;;;;7.03;6.28;;;16.20;99.90;;;;;;5037721;28;20020;-76
2023/05/21 00:52:25;;;;;;;6.60;5.95;;;16.20;99.90;;;;;;5059460;28;20021;-76
2023/05/21 00:54:51;;;;;;;7.60;6.45;;;16.20;99.90;;;;;;5056187;28;20021;-75
2023/05/21 00:57:24;;;;;;;10.85;6.53;;;16.10;99.90;;;;;;5040892;28;20052;-76
2023/05/21 00:59:51;;;;;;;8.75;6.75;;;16.10;99.90;;;;;;5058005;28;20039;-75
2023/05/21 01:02:17;;;;;;;7.35;6.57;;;16.10;99.90;;;;;;5059941;28;20114;-76
2023/05/21 01:04:46;;;;;;;7.68;6.97;;;16.00;99.90;;;;;;5059227;28;20552;-76
2023/05/21 01:07:13;;;;;;;7.95;6.80;;;16.00;99.90;;;;;;5057842;28;20542;-75
2023/05/21 01:09:40;;;;;;;8.65;6.53;;;16.00;99.90;;;;;;5059344;28;20572;-75
2023/05/21 01:12:06;;;;;;;8.77;6.63;;;16.00;99.90;;;;;;5058930;28;20040;-75
2023/05/21 01:14:33;;;;;;;10.60;6.75;;;16.00;99.90;;;;;;5057922;28;20082;-75
2023/05/21 01:17:00;;;;;;;9.73;7.10;;;15.90;99.90;;;;;;5057778;28;20029;-75
2023/05/21 01:19:27;;;;;;;15.20;6.97;;;15.90;99.90;;;;;;5058736;28;21264;-75
2023/05/21 01:22:03;;;;;;;8.15;7.32;;;15.90;99.90;;;;;;5038690;28;20059;-75
2023/05/21 01:24:29;;;;;;;7.88;7.07;;;15.90;99.90;;;;;;5058300;28;20029;-75
2023/05/21 01:26:55;;;;;;;9.80;7.07;;;15.80;99.90;;;;;;5040022;28;20044;-75
2023/05/21 01:29:21;;;;;;;9.77;7.72;;;15.80;99.90;;;;;;5058839;28;20078;-75
2023/05/21 01:32:14;;;;;;;10.27;7.75;;;15.80;99.90;;;;;;5059006;28;20103;-75
2023/05/21 01:34:46;;;;;;;12.30;8.32;;;15.80;99.90;;;;;;5059018;28;20029;-75
2023/05/21 01:37:19;;;;;;;9.85;8.23;;;15.80;99.90;;;;;;5057065;28;20012;-75
2023/05/21 01:39:54;;;;;;;10.05;9.05;;;15.70;99.90;;;;;;5058546;28;20025;-75
2023/05/21 01:42:22;;;;;;;9.43;8.32;;;15.70;99.90;;;;;;5058335;28;20013;-75
2023/05/21 01:44:50;;;;;;;11.88;8.27;;;15.70;99.90;;;;;;5057821;28;20020;-75
2023/05/21 01:47:17;;;;;;;7.82;7.13;;;15.60;99.90;;;;;;5057076;28;20044;-75
2023/05/21 01:49:44;;;;;;;8.43;7.53;;;15.60;99.90;;;;;;5058068;28;20017;-75
2023/05/21 01:52:09;;;;;;;8.90;7.75;;;15.60;99.90;;;;;;5057984;28;20135;-75
2023/05/21 01:54:35;;;;;;;13.45;9.30;;;15.60;99.90;;;;;;5057144;28;20111;-75
2023/05/21 01:57:01;;;;;;;11.15;8.38;;;15.40;99.90;;;;;;5056768;28;20029;-75
2023/05/21 01:59:28;;;;;;;10.40;8.00;;;15.30;99.90;;;;;;5058089;28;20481;-75
2023/05/21 02:01:54;;;;;;;10.20;7.68;;;15.30;99.90;;;;;;5057705;28;20041;-75
2023/05/21 02:04:20;;;;;;;9.85;7.57;;;15.30;99.90;;;;;;5057309;28;20103;-75
2023/05/21 02:06:45;;;;;;;9.38;8.48;;;15.30;99.90;;;;;;5037512;28;20041;-75
2023/05/21 02:09:11;;;;;;;10.20;8.60;;;15.30;99.90;;;;;;5062391;28;20424;-75
2023/05/21 02:11:37;;;;;;;11.68;8.48;;;15.20;99.90;;;;;;5043569;28;20465;-75
2023/05/21 02:14:02;;;;;;;9.25;8.27;;;15.30;99.90;;;;;;5062076;28;20489;-75
2023/05/21 02:16:28;;;;;;;12.65;9.18;;;15.30;99.90;;;;;;5062494;28;20021;-75
2023/05/21 02:18:56;;;;;;;11.23;9.43;;;15.30;99.90;;;;;;5047762;28;20029;-75
2023/05/21 02:21:22;;;;;;;12.13;9.00;;;15.20;99.90;;;;;;5061780;28;20546;-75
2023/05/21 02:23:48;;;;;;;9.73;7.85;;;15.10;99.90;;;;;;5062986;28;20025;-75
2023/05/21 02:26:13;;;;;;;8.93;7.88;;;15.20;99.90;;;;;;5060329;28;20029;-75
2023/05/21 02:28:39;;;;;;;10.93;9.00;;;15.30;99.90;;;;;;5043999;28;20024;-74
2023/05/21 02:31:05;;;;;;;10.85;8.15;;;15.20;99.90;;;;;;5043794;28;20473;-74
2023/05/21 02:33:31;;;;;;;14.65;7.88;;;15.20;99.90;;;;;;5060328;28;20435;-74
2023/05/21 02:35:56;;;;;;;13.95;8.93;;;15.10;99.90;;;;;;5062769;28;20087;-74
2023/05/21 02:38:24;;;;;;;11.90;8.68;;;15.20;99.90;;;;;;5061847;28;20017;-74
2023/05/21 02:40:50;;;;;;;9.82;8.80;;;15.20;99.90;;;;;;5042208;28;20036;-74
2023/05/21 02:43:16;;;;;;;9.85;7.95;;;15.20;99.90;;;;;;5061753;28;20024;-74
2023/05/21 02:45:42;;;;;;;10.18;7.78;;;15.10;99.90;;;;;;5041104;28;20508;-74
2023/05/21 02:48:07;;;;;;;11.65;8.55;;;15.10;99.90;;;;;;5056006;28;20027;-74
2023/05/21 02:50:33;;;;;;;9.98;8.65;;;15.20;99.90;;;;;;5054948;28;20021;-74
2023/05/21 02:52:59;;;;;;;11.38;8.18;;;15.20;99.90;;;;;;5054313;28;20116;-74
2023/05/21 02:55:25;;;;;;;9.93;8.57;;;15.20;99.90;;;;;;5061318;28;20151;-74
2023/05/21 02:57:51;;;;;;;9.73;8.30;;;15.20;99.90;;;;;;5059955;28;20032;-74
2023/05/21 03:00:16;;;;;;;9.25;8.35;;;15.20;99.90;;;;;;5062406;28;20024;-74
2023/05/21 03:02:42;;;;;;;9.00;7.82;;;15.10;99.90;;;;;;5061819;28;20523;-74
2023/05/21 03:05:09;;;;;;;9.18;8.38;;;15.20;99.90;;;;;;5055524;28;20016;-74
2023/05/21 03:07:35;;;;;;;10.05;8.00;;;15.30;99.90;;;;;;5062519;28;20036;-74
2023/05/21 03:10:00;;;;;;;9.27;8.05;;;15.20;99.90;;;;;;5059868;28;20106;-74
2023/05/21 03:12:26;;;;;;;11.95;8.55;;;15.30;99.90;;;;;;5043457;28;20113;-74
2023/05/21 03:14:52;;;;;;;9.60;7.93;;;15.20;99.90;;;;;;5062076;28;20071;-74
2023/05/21 03:17:18;;;;;;;10.00;7.97;;;15.30;99.90;;;;;;5060532;28;20049;-75
2023/05/21 03:19:43;;;;;;;9.05;8.07;;;15.30;99.90;;;;;;5062077;28;20033;-74
2023/05/21 03:22:10;;;;;;;11.50;8.32;;;15.30;99.90;;;;;;5061951;28;20040;-74
2023/05/21 03:24:37;;;;;;;9.10;8.20;;;15.40;99.90;;;;;;5067851;28;20031;-74
2023/05/21 03:27:05;;;;;;;10.13;8.38;;;15.20;99.90;;;;;;5061782;28;20567;-74
2023/05/21 03:29:31;;;;;;;13.50;8.52;;;15.20;99.90;;;;;;5061843;28;20025;-74
2023/05/21 03:31:57;;;;;;;11.73;7.45;;;15.10;99.90;;;;;;5060355;28;20775;-74
2023/05/21 03:34:23;;;;;;;8.75;7.82;;;15.10;99.90;;;;;;5043674;28;20162;-74
2023/05/21 03:36:49;;;;;;;10.90;8.30;;;15.10;99.90;;;;;;5062002;28;20060;-74
2023/05/21 03:39:15;;;;;;;9.02;8.13;;;15.20;99.90;;;;;;5062401;28;20016;-74
2023/05/21 03:41:41;;;;;;;9.93;7.80;;;15.20;99.90;;;;;;5071811;28;20583;-74
2023/05/21 03:44:07;;;;;;;10.13;8.02;;;15.20;99.90;;;;;;5071466;28;20036;-74
2023/05/21 03:46:33;;;;;;;10.23;8.40;;;15.20;99.90;;;;;;5046668;28;20025;-74
2023/05/21 03:48:59;;;;;;;9.75;8.35;;;15.20;99.90;;;;;;5050700;28;20013;-74
2023/05/21 03:51:24;;;;;;;8.93;8.00;;;15.10;99.90;;;;;;5051842;28;20075;-73
2023/05/21 03:53:50;;;;;;;8.50;7.40;;;15.10;99.90;;;;;;5052991;28;20017;-74
2023/05/21 03:56:16;;;;;;;8.52;7.43;;;15.10;99.90;;;;;;5055292;28;20086;-74
2023/05/21 03:58:42;;;;;;;11.63;8.63;;;15.00;99.90;;;;;;5049018;28;20070;-74
2023/05/21 04:01:09;;;;;;;8.57;7.75;;;15.10;99.90;;;;;;5088245;28;20058;-74
2023/05/21 04:03:35;;;;;;;13.98;8.80;;;14.90;99.90;;;;;;5094798;28;20038;-74
2023/05/21 04:06:04;;;;;;;8.40;7.53;;;14.90;99.90;;;;;;5095007;28;20063;-74
2023/05/21 04:08:30;;;;;;;11.27;6.75;;;15.10;99.90;;;;;;5095170;28;20042;-74
2023/05/21 04:10:56;;;;;;;8.85;7.70;;;15.20;99.90;;;;;;5076014;28;20123;-74
2023/05/21 04:13:22;;;;;;;8.68;7.78;;;15.10;99.90;;;;;;5074567;28;20445;-74
2023/05/21 04:15:47;;;;;;;12.05;8.35;;;15.10;99.90;;;;;;5062606;28;20104;-73
2023/05/21 04:18:15;;;;;;;9.73;8.07;;;15.20;99.90;;;;;;5054989;28;20035;-73
2023/05/21 04:20:41;;;;;;;9.77;7.82;;;15.20;99.90;;;;;;5081467;28;20020;-73
2023/05/21 04:23:08;;;;;;;8.23;7.43;;;15.20;99.90;;;;;;5094900;28;20027;-74
2023/05/21 04:25:33;;;;;;;8.50;7.25;;;15.20;99.90;;;;;;5094298;28;20020;-74
2023/05/21 04:27:59;;;;;;;9.07;7.57;;;15.30;99.90;;;;;;5094180;28;20047;-74
2023/05/21 04:30:25;;;;;;;8.73;7.85;;;15.30;99.90;;;;;;5078815;28;20017;-74
2023/05/21 04:32:51;;;;;;;9.73;6.78;;;15.40;99.90;;;;;;5054097;28;20059;-74
2023/05/21 04:35:17;;;;;;;10.35;7.15;;;15.30;99.90;;;;;;5054393;28;20032;-74
2023/05/21 04:37:44;;;;;;;12.20;8.40;;;15.30;99.90;;;;;;5053320;28;20029;-74
2023/05/21 04:40:16;;;;;;;8.32;7.43;;;15.20;99.90;;;;;;5053335;28;20095;-74
2023/05/21 04:42:47;;;;;;;9.85;7.32;;;15.30;99.90;;;;;;5069385;28;20070;-74
2023/05/21 04:45:12;;;;;;;10.18;7.78;;;15.30;99.90;;;;;;5073401;28;20025;-74
2023/05/21 04:47:38;;;;;;;9.38;7.72;;;15.40;99.90;;;;;;5074499;28;20035;-73
2023/05/21 04:50:05;;;;;;;11.52;7.97;;;15.40;99.90;;;;;;5074392;28;20038;-73
2023/05/21 04:52:30;;;;;;;11.63;8.27;;;15.30;99.90;;;;;;5074426;28;20031;-73
2023/05/21 04:54:56;;;;;;;8.57;7.55;;;15.40;99.90;;;;;;5061622;28;20037;-74
2023/05/21 04:57:23;;;;;;;8.50;7.65;;;15.40;99.90;;;;;;5053647;28;20049;-74
2023/05/21 04:59:49;;;;;;;9.45;7.30;;;15.50;99.90;;;;;;5053509;28;20028;-74
2023/05/21 05:02:15;;;;;;;8.73;7.47;;;15.50;99.90;;;;;;5053102;28;20709;-74
2023/05/21 05:04:42;;;;;;;7.90;7.10;;;15.40;99.90;;;;;;5053460;28;20059;-74
2023/05/21 05:07:08;;;;;;;8.93;8.00;;;15.50;99.90;;;;;;5053148;28;20500;-73
2023/05/21 05:09:34;;;;;;;7.95;7.15;;;15.50;99.90;;;;;;5054078;28;20021;-74
2023/05/21 05:12:00;;;;;;;9.82;7.90;;;15.60;99.90;;;;;;5053697;28;20432;-74
2023/05/21 05:14:26;;;;;;;8.27;7.40;;;15.60;99.90;;;;;;5053021;28;20029;-73
2023/05/21 05:16:53;;;;;;;10.10;7.55;;;15.60;99.90;;;;;;5053766;28;20382;-74
2023/05/21 05:19:19;;;;;;;18.45;8.43;;;15.60;99.90;;;;;;5053177;28;20544;-74
2023/05/21 05:21:45;;;;;;;13.77;7.50;;;15.60;99.90;;;;;;5053311;28;20476;-73
2023/05/21 05:24:11;;;;;;;9.10;7.55;;;15.60;99.90;;;;;;5053417;28;20467;-74
2023/05/21 05:26:36;;;;;;;12.13;8.00;;;15.70;99.90;;;;;;5053347;28;20079;-74
2023/05/21 05:29:02;;;;;;;7.32;6.53;;;15.70;99.90;;;;;;5052458;28;20031;-74
2023/05/21 05:31:28;;;;;;;8.23;7.10;;;15.60;99.90;;;;;;5053504;28;20354;-74
2023/05/21 05:33:54;;;;;;;11.88;7.68;;;15.80;99.90;;;;;;5052968;28;20067;-74
2023/05/21 05:36:20;;;;;;;11.40;7.50;;;15.80;99.90;;;;;;5034655;28;20029;-74
2023/05/21 05:38:45;;;;;;;11.45;7.93;;;15.80;99.90;;;;;;5053136;28;20028;-74
2023/05/21 05:41:11;;;;;;;10.80;7.18;;;15.80;99.90;;;;;;5053442;28;20025;-74
2023/05/21 05:43:37;;;;;;;10.27;8.43;;;15.90;99.90;;;;;;5073626;28;20028;-74
2023/05/21 05:46:02;;;;;;;9.85;7.45;;;15.90;99.90;;;;;;5073274;28;20492;-74
2023/05/21 05:48:28;;;;;;;8.45;7.53;;;16.00;99.90;;;;;;5053517;28;20020;-73
2023/05/21 05:50:54;;;;;;;11.57;8.35;;;16.00;99.90;;;;;;5072709;28;20032;-73
2023/05/21 05:53:20;;;;;;;10.10;8.27;;;16.00;99.90;;;;;;5072915;28;20027;-71
2023/05/21 05:55:46;;;;;;;12.77;7.88;;;16.10;99.90;;;;;;5072698;28;20025;-72
2023/05/21 05:58:11;;;;;;;10.30;8.13;;;16.10;99.90;;;;;;5072512;28;20048;-72
2023/05/21 06:00:37;;;;;;;10.98;7.93;;;16.10;99.90;;;;;;5072255;28;20029;-71
2023/05/21 06:03:03;;;;;;;9.45;8.00;;;16.20;99.90;;;;;;5069930;28;20447;-73
2023/05/21 06:05:29;;;;;;;8.68;7.57;;;16.10;99.90;;;;;;5052442;28;20035;-73
2023/05/21 06:07:54;;;;;;;10.88;8.43;;;16.20;99.90;;;;;;5051923;28;20033;-72
2023/05/21 06:10:20;;;;;;;10.38;8.27;;;16.20;99.90;;;;;;5061058;28;20025;-74
2023/05/21 06:12:46;;;;;;;10.68;8.35;;;16.30;99.90;;;;;;5065239;28;20454;-71
2023/05/21 06:15:13;;;;;;;10.13;7.93;;;16.30;99.90;;;;;;5056099;28;20533;-72
2023/05/21 06:17:39;;;;;;;8.98;8.07;;;16.30;99.90;;;;;;5070762;28;20013;-72
2023/05/21 06:20:07;;;;;;;11.95;8.40;;;16.40;99.90;;;;;;5072814;28;20023;-73
2023/05/21 06:22:33;;;;;;;10.73;8.75;;;16.40;99.90;;;;;;5071239;28;20469;-73
2023/05/21 06:24:59;;;;;;;11.13;9.43;;;16.40;99.90;;;;;;5053890;28;20017;-72
2023/05/21 06:27:25;;;;;;;10.48;8.73;;;16.50;99.90;;;;;;5052355;28;20041;-73
2023/05/21 06:29:50;;;;;;;10.18;8.38;;;16.60;99.90;;;;;;5052470;28;20032;-76
2023/05/21 06:32:16;;;;;;;11.07;8.30;;;16.60;99.90;;;;;;5053369;28;20048;-75
2023/05/21 06:34:42;;;;;;;12.55;9.02;;;16.50;99.90;;;;;;5072168;28;20031;-75
2023/05/21 06:37:08;;;;;;;9.63;8.30;;;16.60;99.90;;;;;;5071999;28;20112;-75
2023/05/21 06:39:33;;;;;;;11.02;9.48;;;16.60;99.90;;;;;;5072559;28;20443;-75
2023/05/21 06:41:59;;;;;;;10.05;8.35;;;16.60;99.90;;;;;;5072297;28;20085;-75
2023/05/21 06:44:25;;;;;;;9.40;8.40;;;16.60;99.90;;;;;;5071783;28;20431;-75
2023/05/21 06:46:50;;;;;;;13.07;10.00;;;16.70;99.90;;;;;;5042970;28;20036;-76
2023/05/21 06:49:16;;;;;;;12.68;8.10;;;16.60;99.90;;;;;;5051978;28;20056;-75
2023/05/21 06:51:42;;;;;;;11.10;9.48;;;16.70;99.90;;;;;;5062076;28;20111;-75
2023/05/21 06:54:07;;;;;;;11.35;9.32;;;16.80;99.90;;;;;;5061129;28;20070;-75
2023/05/21 06:56:33;;;;;;;10.77;9.52;;;16.90;99.90;;;;;;5052190;28;20039;-75
2023/05/21 06:58:59;;;;;;;11.13;9.57;;;16.80;99.90;;;;;;5056511;28;20453;-75
2023/05/21 07:01:25;;;;;;;11.68;10.32;;;16.90;99.90;;;;;;5063034;28;20465;-76
2023/05/21 07:03:51;;;;;;;11.65;9.30;;;17.00;99.90;;;;;;5058040;28;20048;-76
2023/05/21 07:06:17;;;;;;;10.82;9.73;;;17.10;99.90;;;;;;5051455;28;20048;-76
2023/05/21 07:08:42;;;;;;;13.95;10.15;;;17.20;99.90;;;;;;5051689;28;20017;-76
2023/05/21 07:11:08;;;;;;;12.85;9.93;;;17.20;99.90;;;;;;5051851;28;20500;-76
2023/05/21 07:13:37;;;;;;;11.90;10.25;;;17.30;99.90;;;;;;5051249;28;20401;-75
2023/05/21 07:16:02;;;;;;;10.55;9.45;;;17.40;99.90;;;;;;5052276;28;20025;-74
2023/05/21 07:18:28;;;;;;;11.43;10.23;;;17.50;99.90;;;;;;5049265;28;20385;-75
2023/05/21 07:20:54;;;;;;;13.95;9.75;;;17.60;99.90;;;;;;5051499;28;20098;-74
2023/05/21 07:23:20;;;;;;;11.25;9.68;;;17.60;99.90;;;;;;5051832;28;20033;-74
2023/05/21 07:25:46;;;;;;;12.90;10.27;;;17.60;99.90;;;;;;5051507;28;20474;-74
2023/05/21 07:28:12;;;;;;;12.38;10.60;;;17.70;99.90;;;;;;5054110;28;20021;-75
2023/05/21 07:30:37;;;;;;;15.40;11.57;;;17.80;99.90;;;;;;5055838;28;20025;-74
2023/05/21 07:33:03;;;;;;;14.48;11.10;;;17.70;99.90;;;;;;5063438;28;20024;-74
2023/05/21 07:35:29;;;;;;;12.68;10.43;;;17.70;99.90;;;;;;5073252;28;20099;-74
2023/05/21 07:37:55;;;;;;;11.68;9.77;;;17.60;99.90;;;;;;5053961;28;20025;-74
2023/05/21 07:40:20;;;;;;;15.23;11.88;;;17.70;99.90;;;;;;5054470;28;20029;-75
2023/05/21 07:42:46;;;;;;;13.55;11.02;;;17.70;99.90;;;;;;5064086;28;20481;-74
2023/05/21 07:45:12;;;;;;;11.73;10.52;;;17.90;99.90;;;;;;5057059;28;20631;-74
2023/05/21 07:47:37;;;;;;;14.23;12.27;;;18.10;99.90;;;;;;5063033;28;20086;-75
2023/05/21 07:50:04;;;;;;;13.93;10.90;;;18.20;99.90;;;;;;5062101;28;20047;-75
2023/05/21 07:52:29;;;;;;;13.68;11.85;;;18.30;99.90;;;;;;5036823;28;20423;-74
2023/05/21 07:54:55;;;;;;;12.82;11.52;;;18.30;99.90;;;;;;5059670;28;20028;-74
2023/05/21 07:57:22;;;;;;;13.07;10.80;;;18.30;99.90;;;;;;5064832;28;20017;-75
2023/05/21 07:59:47;;;;;;;12.10;10.77;;;18.50;99.90;;;;;;5045945;28;20016;-74
2023/05/21 08:02:13;;;;;;;12.07;10.80;;;18.70;99.90;;;;;;5062521;28;20496;-74
2023/05/21 08:04:39;;;;;;;14.25;10.25;;;18.90;99.90;;;;;;5074310;28;20074;-74
2023/05/21 08:07:04;;;;;;;13.50;10.65;;;19.10;99.90;;;;;;5075139;28;20090;-74
2023/05/21 08:09:31;;;;;;;13.32;9.48;;;19.10;99.90;;;;;;5075142;28;20024;-75
2023/05/21 08:11:56;;;;;;;13.23;11.68;;;19.20;99.90;;;;;;5056097;28;20174;-75
2023/05/21 08:14:22;;;;;;;14.35;11.65;;;19.20;99.90;;;;;;5074644;28;20115;-75
2023/05/21 08:16:48;;;;;;;13.25;10.98;;;19.30;99.90;;;;;;5052566;28;20128;-75
2023/05/21 08:19:14;;;;;;;14.40;11.68;;;19.40;99.90;;;;;;5054018;28;20028;-73
2023/05/21 08:21:40;;;;;;;11.82;10.65;;;19.40;99.90;;;;;;5055754;28;20110;-74
2023/05/21 08:24:06;;;;;;;12.32;11.10;;;19.30;99.90;;;;;;5065100;28;20033;-74
2023/05/21 08:26:31;;;;;;;12.88;10.80;;;19.50;99.90;;;;;;5054691;28;20037;-74
2023/05/21 08:28:58;;;;;;;13.70;11.70;;;19.60;99.90;;;;;;5035566;28;20017;-74
2023/05/21 08:31:23;;;;;;;12.80;10.85;;;19.70;99.90;;;;;;5054812;28;20075;-74
2023/05/21 08:33:50;;;;;;;12.63;10.63;;;19.80;99.90;;;;;;5069524;28;20068;-74
2023/05/21 08:36:17;;;;;;;12.10;10.80;;;19.90;99.90;;;;;;5074348;28;20044;-75
2023/05/21 08:38:43;;;;;;;13.85;10.52;;;20.10;99.90;;;;;;5072603;28;20071;-74
2023/05/21 08:41:11;;;;;;;12.93;10.48;;;20.20;99.90;;;;;;5072512;28;20384;-74
2023/05/21 08:43:40;;;;;;;12.93;10.38;;;20.30;99.90;;;;;;5069011;28;20032;-74
2023/05/21 08:46:08;;;;;;;14.07;11.20;;;20.40;99.90;;;;;;5043668;28;20094;-74
2023/05/21 08:48:35;;;;;;;16.25;12.98;;;20.50;99.90;;;;;;5055365;28;20056;-74
2023/05/21 08:51:01;;;;;;;13.73;11.82;;;20.30;99.90;;;;;;5075651;28;20112;-74
2023/05/21 08:53:27;;;;;;;11.55;10.38;;;20.40;99.90;;;;;;5063701;28;20104;-74
2023/05/21 08:55:54;;;;;;;12.90;11.13;;;20.40;99.90;;;;;;5041763;28;20021;-74
2023/05/21 08:58:23;;;;;;;12.65;10.45;;;20.40;99.90;;;;;;5059250;28;20032;-74
2023/05/21 09:00:49;;;;;;;15.32;10.93;;;20.40;99.90;;;;;;5062941;28;20070;-75
2023/05/21 09:03:15;;;;;;;14.27;11.05;;;20.40;99.90;;;;;;5060435;28;20056;-74
2023/05/21 09:05:42;;;;;;;12.75;11.40;;;20.50;99.90;;;;;;5060128;28;20044;-74
2023/05/21 09:08:29;;;;;;;15.85;11.70;;;20.60;99.90;;;;;;5045060;28;20021;-74
2023/05/21 09:10:55;;;;;;;15.40;12.82;;;20.70;99.90;;;;;;5072395;28;20017;-74
2023/05/21 09:13:23;;;;;;;12.85;11.38;;;20.90;99.90;;;;;;5071858;28;20036;-74
2023/05/21 09:15:50;;;;;;;14.18;11.43;;;21.00;99.90;;;;;;5073500;28;20526;-74
2023/05/21 09:18:16;;;;;;;18.85;11.98;;;21.10;99.90;;;;;;5073248;28;20469;-74
2023/05/21 09:20:42;;;;;;;14.18;11.98;;;21.20;99.90;;;;;;5073099;28;20024;-74
2023/05/21 09:23:15;;;;;;;15.85;13.15;;;21.30;99.90;;;;;;5073131;28;20028;-73
2023/05/21 09:25:43;;;;;;;;;;;21.10;99.90;;;;;;5055180;28;20025;-73
2023/05/21 09:28:14;;;;;;;18.85;12.30;;;21.20;99.90;;;;;;5051738;28;19995;-74
2023/05/21 09:30:48;;;;;;;16.00;13.68;;;21.10;99.90;;;;;;5053064;28;20017;-74
2023/05/21 09:33:32;;;;;;;14.93;12.95;;;21.10;99.90;;;;;;5062060;28;20029;-73
2023/05/21 09:35:58;;;;;;;15.43;13.40;;;21.30;99.90;;;;;;5063467;28;20108;-73
2023/05/21 09:38:24;;;;;;;19.13;14.73;;;21.30;99.90;;;;;;5062197;28;20040;-73
2023/05/21 09:40:53;;;;;;;15.32;13.25;;;21.10;99.90;;;;;;5067493;28;20342;-73
2023/05/21 09:43:20;;;;;;;15.48;13.48;;;21.20;99.90;;;;;;5073485;28;20025;-74
2023/05/21 09:45:51;;;;;;;19.08;13.90;;;21.30;99.90;;;;;;5072481;28;20037;-73
2023/05/21 09:48:17;;;;;;;16.33;13.52;;;21.60;99.90;;;;;;5072914;28;20033;-73
2023/05/21 09:50:43;;;;;;;16.00;14.00;;;21.70;99.90;;;;;;5072957;28;20100;-73
2023/05/21 09:53:13;;;;;;;17.73;12.25;;;21.60;99.90;;;;;;5073314;28;20113;-73
2023/05/21 09:55:39;;;;;;;14.38;12.88;;;21.80;99.90;;;;;;5043464;28;20036;-73
2023/05/21 09:58:05;;;;;;;14.27;12.88;;;21.90;99.90;;;;;;5039681;28;20363;-74
2023/05/21 10:00:31;;;;;;;16.45;12.50;;;22.00;99.90;;;;;;5055314;28;20039;-74
2023/05/21 10:03:00;;;;;;;16.27;14.75;;;22.10;99.90;;;;;;5018275;28;20134;-74
2023/05/21 10:05:28;;;;;;;15.75;13.13;;;22.30;99.90;;;;;;5055356;28;20029;-74
2023/05/21 10:08:02;;;;;;;17.63;13.50;;;22.50;99.90;;;;;;5055889;28;20044;-74
2023/05/21 10:10:30;;;;;;;15.77;14.07;;;22.70;99.90;;;;;;5058043;28;20702;-74
2023/05/21 10:13:07;;;;;;;19.13;15.35;;;22.70;99.90;;;;;;5050858;28;20484;-74
2023/05/21 10:15:44;;;;;;;16.27;12.77;;;22.70;99.90;;;;;;5055688;28;20044;-74
2023/05/21 10:18:12;;;;;;;15.98;13.65;;;23.00;99.90;;;;;;5058379;28;20380;-75
2023/05/21 10:20:39;;;;;;;15.18;13.57;;;23.30;99.90;;;;;;5050546;28;20033;-74
2023/05/21 10:23:05;;;;;;;17.90;14.95;;;23.20;99.90;;;;;;5033128;28;21807;-73
2023/05/21 10:25:31;;;;;;;18.05;15.93;;;23.10;99.90;;;;;;5048564;28;20033;-73
2023/05/21 10:27:57;;;;;;;15.90;14.18;;;23.20;99.90;;;;;;5037960;28;20090;-74
2023/05/21 10:30:23;;;;;;;16.73;14.90;;;23.10;99.90;;;;;;5047281;28;20093;-73
2023/05/21 10:32:50;;;;;;;17.80;15.35;;;23.30;99.90;;;;;;5054737;28;20052;-74
2023/05/21 10:35:16;;;;;;;17.13;13.95;;;23.30;99.90;;;;;;5052663;28;20446;-74
2023/05/21 10:37:45;;;;;;;18.08;15.30;;;23.40;99.90;;;;;;5056775;28;20471;-74
2023/05/21 10:40:12;;;;;;;17.20;12.95;;;23.50;99.90;;;;;;5033044;28;20126;-75
2023/05/21 10:42:57;;;;;;;20.30;13.90;;;23.70;99.90;;;;;;5052986;28;20025;-75
2023/05/21 10:46:07;;;;;;;19.40;14.23;;;23.70;99.90;;;;;;5052628;28;20461;-75
2023/05/21 10:48:52;;;;;;;19.30;14.13;;;23.90;99.90;;;;;;4964197;28;20510;-75
2023/05/21 10:51:51;;;;;;;14.52;12.82;;;24.30;99.90;;;;;;4979906;28;20049;-75
2023/05/21 10:54:38;;;;;;;17.63;15.10;;;24.40;99.90;;;;;;5029874;28;20394;-75
2023/05/21 10:57:41;;;;;;;17.52;13.60;;;24.40;99.90;;;;;;5032575;28;20380;-74
2023/05/21 11:00:11;;;;;;;15.38;13.65;;;24.30;99.90;;;;;;5036561;28;20033;-74
2023/05/21 11:02:37;;;;;;;17.27;14.00;;;24.60;99.90;;;;;;5055761;28;20101;-75
2023/05/21 11:05:03;;;;;;;16.70;14.32;;;24.60;99.90;;;;;;5055824;28;20035;-74
2023/05/21 11:07:57;;;;;;;16.23;13.23;;;24.90;99.90;;;;;;5055429;28;20033;-74
2023/05/21 11:10:33;;;;;;;16.17;13.30;;;24.90;99.90;;;;;;5061423;28;20029;-75
2023/05/21 11:13:11;;;;;;;16.85;13.40;;;24.80;99.90;;;;;;5051611;28;20027;-75
2023/05/21 11:15:56;;;;;;;17.20;12.73;;;24.80;99.90;;;;;;5045080;28;20040;-74
2023/05/21 11:18:23;;;;;;;14.95;12.30;;;25.10;99.90;;;;;;5055318;28;20063;-75
2023/05/21 11:20:51;;;;;;;16.98;11.80;;;25.20;99.90;;;;;;5061178;28;20033;-74
2023/05/21 11:23:20;;;;;;;18.42;13.90;;;25.10;99.90;;;;;;5040519;28;20028;-75
2023/05/21 11:26:06;;;;;;;19.90;17.02;;;25.10;99.90;;;;;;5033885;28;20036;-74
2023/05/21 11:28:33;;;;;;;23.45;16.88;;;25.30;99.90;;;;;;5039859;28;20512;-76
2023/05/21 11:31:28;;;;;;;16.70;15.00;;;25.50;99.90;;;;;;5057548;28;20029;-75
2023/05/21 11:34:16;;;;;;;16.50;13.63;;;25.50;99.90;;;;;;5054211;28;20106;-75
2023/05/21 11:36:48;;;;;;;18.15;15.25;;;25.50;99.90;;;;;;5053653;28;20017;-75
2023/05/21 11:39:16;;;;;;;;;;;25.30;99.90;;;;;;5051419;28;20032;-74
2023/05/21 11:42:01;;;;;;;18.42;15.10;;;25.50;99.90;;;;;;5052120;28;19915;-74
2023/05/21 11:44:47;;;;;;;15.15;13.13;;;25.60;99.90;;;;;;5053812;28;20025;-74
2023/05/21 11:47:17;;;;;;;18.83;14.95;;;25.70;99.90;;;;;;5050343;28;20044;-75
2023/05/21 11:49:44;;;;;;;18.02;15.02;;;25.70;99.90;;;;;;5059165;28;20082;-74
2023/05/21 11:52:11;;;;;;;17.48;14.13;;;25.80;99.90;;;;;;5059810;28;20085;-75
2023/05/21 11:54:39;;;;;;;17.13;14.18;;;25.70;99.90;;;;;;5054860;28;20036;-75
2023/05/21 11:57:06;;;;;;;16.38;14.45;;;26.00;99.90;;;;;;5052524;28;20032;-76
2023/05/21 11:59:33;;;;;;;18.05;13.38;;;26.10;99.90;;;;;;5052647;28;20089;-74
2023/05/21 12:01:59;;;;;;;16.40;14.07;;;26.10;99.90;;;;;;5057091;28;20029;-74
2023/05/21 12:04:35;;;;;;;19.35;15.07;;;25.90;99.90;;;;;;5034060;28;20588;-75
2023/05/21 12:07:07;;;;;;;18.42;14.10;;;25.80;99.90;;;;;;5053571;28;20479;-76
2023/05/21 12:09:44;;;;;;;22.40;16.80;;;25.90;99.90;;;;;;5050016;28;20032;-75
2023/05/21 12:12:14;;;;;;;18.05;15.95;;;25.80;99.90;;;;;;5051373;28;20020;-75
2023/05/21 12:14:46;;;;;;;16.67;14.88;;;25.70;99.90;;;;;;5048750;28;20082;-74
2023/05/21 12:17:15;;;;;;;18.25;14.45;;;25.50;99.90;;;;;;5048634;28;20052;-75
2023/05/21 12:19:41;;;;;;;15.75;14.00;;;25.70;99.90;;;;;;5051249;28;20473;-75
2023/05/21 12:22:08;;;;;;;18.67;15.30;;;25.70;99.90;;;;;;5030934;28;20025;-75
2023/05/21 12:24:36;;;;;;;16.50;14.80;;;25.80;99.90;;;;;;5050808;28;20017;-76
2023/05/21 12:27:08;;;;;;;18.45;13.80;;;26.10;99.90;;;;;;5049071;28;20036;-75
2023/05/21 12:29:43;;;;;;;19.50;15.32;;;26.30;99.90;;;;;;5050135;28;20024;-75
2023/05/21 12:32:11;;;;;;;20.08;16.20;;;26.20;99.90;;;;;;5052006;28;20080;-74
2023/05/21 12:34:53;;;;;;;18.88;15.93;;;25.90;99.90;;;;;;5050982;28;20025;-74
2023/05/21 12:37:31;;;;;;;17.27;14.82;;;25.60;99.90;;;;;;5054863;28;20033;-74
2023/05/21 12:40:06;;;;;;;19.50;14.73;;;25.70;99.90;;;;;;5051666;28;20024;-75